sensor_id;sensor_type;location;lat;lon;timestamp;temperature;humidity
14317;DHT22;7242;50.858;6.586;2022-09-28T00:13:57;9.60;99.90
14317;DHT22;7242;50.858;6.586;2022-09-28T00:20:03;9.60;99.90
14317;DHT22;7242;50.858;6.586;2022-09-28T00:26:06;9.50;99.90
14317;DHT22;7242;50.858;6.586;2022-09-28T00:29:31;9.60;99.90
14317;DHT22;7242;50.858;6.586;2022-09-28T00:47:46;9.60;99.90
14317;DHT22;7242;50.858;6.586;2022-09-28T00:56:56;9.70;99.90
14317;DHT22;7242;50.858;6.586;2022-09-28T01:06:02;9.70;99.90
14317;DHT22;7242;50.858;6.586;2022-09-28T01:12:07;9.90;99.90
14317;DHT22;7242;50.858;6.586;2022-09-28T01:18:17;9.80;99.90
14317;DHT22;7242;50.858;6.586;2022-09-28T01:24:44;9.80;99.90
14317;DHT22;7242;50.858;6.586;2022-09-28T01:27:53;9.80;99.90
14317;DHT22;7242;50.858;6.586;2022-09-28T01:31:15;9.80;99.90
14317;DHT22;7242;50.858;6.586;2022-09-28T01:40:52;9.70;99.90
14317;DHT22;7242;50.858;6.586;2022-09-28T01:43:59;9.80;99.90
14317;DHT22;7242;50.858;6.586;2022-09-28T01:47:03;9.70;99.90
14317;DHT22;7242;50.858;6.586;2022-09-28T01:53:21;9.60;99.90
14317;DHT22;7242;50.858;6.586;2022-09-28T01:59:42;9.60;99.90
14317;DHT22;7242;50.858;6.586;2022-09-28T02:06:22;9.50;99.90
14317;DHT22;7242;50.858;6.586;2022-09-28T02:09:30;9.50;99.90
14317;DHT22;7242;50.858;6.586;2022-09-28T02:12:40;9.50;99.90
14317;DHT22;7242;50.858;6.586;2022-09-28T02:16:12;9.60;99.90
14317;DHT22;7242;50.858;6.586;2022-09-28T02:25:34;9.30;99.90
14317;DHT22;7242;50.858;6.586;2022-09-28T03:03:27;9.20;99.90
14317;DHT22;7242;50.858;6.586;2022-09-28T03:16:14;9.40;99.90
14317;DHT22;7242;50.858;6.586;2022-09-28T03:19:20;9.40;99.90
14317;DHT22;7242;50.858;6.586;2022-09-28T03:22:22;9.50;99.90
14317;DHT22;7242;50.858;6.586;2022-09-28T04:01:49;9.40;99.90
14317;DHT22;7242;50.858;6.586;2022-09-28T04:10:59;9.30;99.90
14317;DHT22;7242;50.858;6.586;2022-09-28T04:20:07;9.40;99.90
14317;DHT22;7242;50.858;6.586;2022-09-28T04:23:14;9.50;99.90
14317;DHT22;7242;50.858;6.586;2022-09-28T04:26:24;9.50;99.90
14317;DHT22;7242;50.858;6.586;2022-09-28T04:59:59;9.40;99.90
14317;DHT22;7242;50.858;6.586;2022-09-28T05:09:35;9.30;99.90
14317;DHT22;7242;50.858;6.586;2022-09-28T05:27:56;9.00;99.90
14317;DHT22;7242;50.858;6.586;2022-09-28T05:37:46;9.10;99.90
14317;DHT22;7242;50.858;6.586;2022-09-28T05:56:05;9.10;99.90
14317;DHT22;7242;50.858;6.586;2022-09-28T06:05:36;9.10;99.90
14317;DHT22;7242;50.858;6.586;2022-09-28T06:18:15;9.20;99.90
14317;DHT22;7242;50.858;6.586;2022-09-28T06:21:46;9.20;99.90
14317;DHT22;7242;50.858;6.586;2022-09-28T06:24:47;9.30;99.90
14317;DHT22;7242;50.858;6.586;2022-09-28T06:28:01;9.20;99.90
14317;DHT22;7242;50.858;6.586;2022-09-28T06:49:55;9.50;99.90
14317;DHT22;7242;50.858;6.586;2022-09-28T06:56:30;9.60;99.90
14317;DHT22;7242;50.858;6.586;2022-09-28T07:06:00;9.70;99.90
14317;DHT22;7242;50.858;6.586;2022-09-28T07:12:41;10.00;99.90
14317;DHT22;7242;50.858;6.586;2022-09-28T07:16:02;10.00;99.90
14317;DHT22;7242;50.858;6.586;2022-09-28T07:19:03;10.00;99.90
14317;DHT22;7242;50.858;6.586;2022-09-28T07:25:06;10.10;99.90
14317;DHT22;7242;50.858;6.586;2022-09-28T07:34:59;10.20;99.90
14317;DHT22;7242;50.858;6.586;2022-09-28T07:38:13;10.30;99.90
14317;DHT22;7242;50.858;6.586;2022-09-28T07:51:04;10.60;99.90
14317;DHT22;7242;50.858;6.586;2022-09-28T07:54:28;10.60;99.90
14317;DHT22;7242;50.858;6.586;2022-09-28T07:57:58;10.70;99.90
14317;DHT22;7242;50.858;6.586;2022-09-28T08:10:36;10.80;99.90
14317;DHT22;7242;50.858;6.586;2022-09-28T08:17:13;10.90;99.90
14317;DHT22;7242;50.858;6.586;2022-09-28T08:20:19;10.80;99.90
14317;DHT22;7242;50.858;6.586;2022-09-28T08:36:27;11.20;99.90
14317;DHT22;7242;50.858;6.586;2022-09-28T08:43:15;11.50;99.90
14317;DHT22;7242;50.858;6.586;2022-09-28T08:46:47;11.50;99.90
14317;DHT22;7242;50.858;6.586;2022-09-28T08:50:06;11.60;99.90
14317;DHT22;7242;50.858;6.586;2022-09-28T08:53:52;11.60;99.90
14317;DHT22;7242;50.858;6.586;2022-09-28T08:57:11;11.80;99.90
14317;DHT22;7242;50.858;6.586;2022-09-28T09:00:20;11.90;99.90
14317;DHT22;7242;50.858;6.586;2022-09-28T09:23:53;12.70;99.90
14317;DHT22;7242;50.858;6.586;2022-09-28T09:27:12;12.80;99.90
14317;DHT22;7242;50.858;6.586;2022-09-28T09:30:19;12.80;99.90
14317;DHT22;7242;50.858;6.586;2022-09-28T09:40:55;13.40;99.90
14317;DHT22;7242;50.858;6.586;2022-09-28T09:44:51;13.50;99.90
14317;DHT22;7242;50.858;6.586;2022-09-28T09:48:02;13.40;99.90
14317;DHT22;7242;50.858;6.586;2022-09-28T09:51:16;13.40;99.90
14317;DHT22;7242;50.858;6.586;2022-09-28T09:54:27;13.40;99.90
14317;DHT22;7242;50.858;6.586;2022-09-28T09:57:39;13.50;99.90
14317;DHT22;7242;50.858;6.586;2022-09-28T10:01:07;13.60;99.90
14317;DHT22;7242;50.858;6.586;2022-09-28T10:04:39;13.70;99.90
14317;DHT22;7242;50.858;6.586;2022-09-28T10:11:27;13.80;99.90
14317;DHT22;7242;50.858;6.586;2022-09-28T10:17:35;14.00;99.90
14317;DHT22;7242;50.858;6.586;2022-09-28T10:27:23;14.20;99.90
14317;DHT22;7242;50.858;6.586;2022-09-28T10:33:35;14.40;99.90
14317;DHT22;7242;50.858;6.586;2022-09-28T10:37:00;14.50;99.90
14317;DHT22;7242;50.858;6.586;2022-09-28T10:40:41;14.50;99.90
14317;DHT22;7242;50.858;6.586;2022-09-28T10:43:55;14.50;99.90
14317;DHT22;7242;50.858;6.586;2022-09-28T10:47:14;14.50;99.90
14317;DHT22;7242;50.858;6.586;2022-09-28T10:50:27;14.60;99.90
14317;DHT22;7242;50.858;6.586;2022-09-28T10:56:58;14.50;99.90
14317;DHT22;7242;50.858;6.586;2022-09-28T11:00:38;14.50;99.90
14317;DHT22;7242;50.858;6.586;2022-09-28T11:03:55;14.60;99.90
14317;DHT22;7242;50.858;6.586;2022-09-28T11:06:57;14.70;99.90
14317;DHT22;7242;50.858;6.586;2022-09-28T11:13:08;14.60;99.90
14317;DHT22;7242;50.858;6.586;2022-09-28T11:16:29;14.50;99.90
14317;DHT22;7242;50.858;6.586;2022-09-28T11:19:32;14.50;99.90
14317;DHT22;7242;50.858;6.586;2022-09-28T11:31:59;14.80;99.90
14317;DHT22;7242;50.858;6.586;2022-09-28T11:41:53;14.80;99.90
14317;DHT22;7242;50.858;6.586;2022-09-28T11:48:28;14.50;99.90
14317;DHT22;7242;50.858;6.586;2022-09-28T11:51:35;14.40;99.90
14317;DHT22;7242;50.858;6.586;2022-09-28T11:54:44;14.40;99.90
14317;DHT22;7242;50.858;6.586;2022-09-28T11:57:59;14.40;99.90
14317;DHT22;7242;50.858;6.586;2022-09-28T12:01:18;14.50;99.90
14317;DHT22;7242;50.858;6.586;2022-09-28T12:04:45;14.60;99.90
14317;DHT22;7242;50.858;6.586;2022-09-28T12:11:22;14.50;99.90
14317;DHT22;7242;50.858;6.586;2022-09-28T12:14:51;14.50;99.90
14317;DHT22;7242;50.858;6.586;2022-09-28T12:17:59;14.60;99.90
14317;DHT22;7242;50.858;6.586;2022-09-28T12:21:35;14.70;99.90
14317;DHT22;7242;50.858;6.586;2022-09-28T12:24:44;14.80;99.90
14317;DHT22;7242;50.858;6.586;2022-09-28T12:30:49;14.80;99.90
14317;DHT22;7242;50.858;6.586;2022-09-28T12:33:51;14.80;99.90
14317;DHT22;7242;50.858;6.586;2022-09-28T12:46:59;14.40;99.90
14317;DHT22;7242;50.858;6.586;2022-09-28T12:50:15;14.40;99.90
14317;DHT22;7242;50.858;6.586;2022-09-28T12:53:41;14.40;99.90
14317;DHT22;7242;50.858;6.586;2022-09-28T13:00:18;14.40;99.90
14317;DHT22;7242;50.858;6.586;2022-09-28T13:07:24;14.40;99.90
14317;DHT22;7242;50.858;6.586;2022-09-28T13:10:42;14.40;99.90
14317;DHT22;7242;50.858;6.586;2022-09-28T13:13:55;14.30;99.90
14317;DHT22;7242;50.858;6.586;2022-09-28T13:17:30;14.40;99.90
14317;DHT22;7242;50.858;6.586;2022-09-28T13:23:45;14.60;99.90
14317;DHT22;7242;50.858;6.586;2022-09-28T13:26:48;14.60;99.90
14317;DHT22;7242;50.858;6.586;2022-09-28T13:29:49;14.60;99.90
14317;DHT22;7242;50.858;6.586;2022-09-28T13:35:53;14.70;99.90
14317;DHT22;7242;50.858;6.586;2022-09-28T13:38:58;14.60;99.90
14317;DHT22;7242;50.858;6.586;2022-09-28T13:49:10;14.70;99.90
14317;DHT22;7242;50.858;6.586;2022-09-28T13:58:59;14.80;99.90
14317;DHT22;7242;50.858;6.586;2022-09-28T14:15:43;15.40;99.90
14317;DHT22;7242;50.858;6.586;2022-09-28T14:19:08;15.50;99.90
14317;DHT22;7242;50.858;6.586;2022-09-28T14:26:13;15.30;99.90
14317;DHT22;7242;50.858;6.586;2022-09-28T14:32:31;15.40;99.90
14317;DHT22;7242;50.858;6.586;2022-09-28T14:35:40;15.40;99.90
14317;DHT22;7242;50.858;6.586;2022-09-28T14:38:46;15.30;99.90
14317;DHT22;7242;50.858;6.586;2022-09-28T14:42:09;15.40;99.90
14317;DHT22;7242;50.858;6.586;2022-09-28T14:48:20;15.30;99.90
14317;DHT22;7242;50.858;6.586;2022-09-28T14:54:52;14.80;99.90
14317;DHT22;7242;50.858;6.586;2022-09-28T14:57:57;14.70;99.90
14317;DHT22;7242;50.858;6.586;2022-09-28T15:01:04;14.50;99.90
14317;DHT22;7242;50.858;6.586;2022-09-28T15:04:09;14.20;99.90
14317;DHT22;7242;50.858;6.586;2022-09-28T15:07:41;14.10;99.90
14317;DHT22;7242;50.858;6.586;2022-09-28T15:10:45;14.10;99.90
14317;DHT22;7242;50.858;6.586;2022-09-28T15:13:48;14.00;99.90
14317;DHT22;7242;50.858;6.586;2022-09-28T15:20:23;14.00;99.90
14317;DHT22;7242;50.858;6.586;2022-09-28T15:23:37;14.00;99.90
14317;DHT22;7242;50.858;6.586;2022-09-28T15:26:38;13.90;99.90
14317;DHT22;7242;50.858;6.586;2022-09-28T15:29:39;13.80;99.90
14317;DHT22;7242;50.858;6.586;2022-09-28T15:38:50;13.60;99.90
14317;DHT22;7242;50.858;6.586;2022-09-28T15:48:27;13.20;99.90
14317;DHT22;7242;50.858;6.586;2022-09-28T15:51:43;13.10;99.90
14317;DHT22;7242;50.858;6.586;2022-09-28T16:00:50;12.90;99.90
14317;DHT22;7242;50.858;6.586;2022-09-28T16:07:22;12.70;99.90
14317;DHT22;7242;50.858;6.586;2022-09-28T16:10:28;12.50;99.90
14317;DHT22;7242;50.858;6.586;2022-09-28T16:13:31;12.40;99.90
14317;DHT22;7242;50.858;6.586;2022-09-28T16:16:35;12.40;99.90
14317;DHT22;7242;50.858;6.586;2022-09-28T16:22:42;12.30;99.90
14317;DHT22;7242;50.858;6.586;2022-09-28T16:41:19;12.00;99.90
14317;DHT22;7242;50.858;6.586;2022-09-28T16:50:26;12.00;99.90
14317;DHT22;7242;50.858;6.586;2022-09-28T16:56:47;11.90;99.90
14317;DHT22;7242;50.858;6.586;2022-09-28T16:59:48;11.80;99.90
14317;DHT22;7242;50.858;6.586;2022-09-28T17:02:49;11.80;99.90
14317;DHT22;7242;50.858;6.586;2022-09-28T17:08:52;12.00;99.90
14317;DHT22;7242;50.858;6.586;2022-09-28T17:21:04;12.30;99.90
14317;DHT22;7242;50.858;6.586;2022-09-28T17:27:11;12.40;99.90
14317;DHT22;7242;50.858;6.586;2022-09-28T17:36:17;12.50;99.90
14317;DHT22;7242;50.858;6.586;2022-09-28T17:39:19;12.40;99.90
14317;DHT22;7242;50.858;6.586;2022-09-28T17:45:22;12.40;99.90
14317;DHT22;7242;50.858;6.586;2022-09-28T18:00:33;12.40;99.90
14317;DHT22;7242;50.858;6.586;2022-09-28T18:03:34;12.40;99.90
14317;DHT22;7242;50.858;6.586;2022-09-28T18:12:38;12.30;99.90
14317;DHT22;7242;50.858;6.586;2022-09-28T18:15:39;12.20;99.90
14317;DHT22;7242;50.858;6.586;2022-09-28T18:21:41;12.20;99.90
14317;DHT22;7242;50.858;6.586;2022-09-28T18:33:46;12.10;99.90
14317;DHT22;7242;50.858;6.586;2022-09-28T18:48:55;12.00;99.90
14317;DHT22;7242;50.858;6.586;2022-09-28T18:51:56;12.00;99.90
14317;DHT22;7242;50.858;6.586;2022-09-28T18:54:57;11.90;99.90
14317;DHT22;7242;50.858;6.586;2022-09-28T19:16:15;11.60;99.90
14317;DHT22;7242;50.858;6.586;2022-09-28T19:19:18;11.50;99.90
14317;DHT22;7242;50.858;6.586;2022-09-28T19:31:24;11.10;99.90
14317;DHT22;7242;50.858;6.586;2022-09-28T19:37:31;11.10;99.90
14317;DHT22;7242;50.858;6.586;2022-09-28T19:52:41;10.80;99.90
14317;DHT22;7242;50.858;6.586;2022-09-28T19:58:43;10.80;99.90
14317;DHT22;7242;50.858;6.586;2022-09-28T20:25:58;10.90;99.90
14317;DHT22;7242;50.858;6.586;2022-09-28T20:28:59;10.90;99.90
14317;DHT22;7242;50.858;6.586;2022-09-28T20:32:00;10.90;99.90
14317;DHT22;7242;50.858;6.586;2022-09-28T20:38:02;11.10;99.90
14317;DHT22;7242;50.858;6.586;2022-09-28T20:41:10;11.10;99.90
14317;DHT22;7242;50.858;6.586;2022-09-28T20:56:17;11.30;99.90
14317;DHT22;7242;50.858;6.586;2022-09-28T21:08:24;11.40;99.90
14317;DHT22;7242;50.858;6.586;2022-09-28T21:11:26;11.40;99.90
14317;DHT22;7242;50.858;6.586;2022-09-28T21:14:28;11.40;99.90
14317;DHT22;7242;50.858;6.586;2022-09-28T21:20:30;11.40;99.90
14317;DHT22;7242;50.858;6.586;2022-09-28T21:23:31;11.40;99.90
14317;DHT22;7242;50.858;6.586;2022-09-28T21:26:32;11.30;99.90
14317;DHT22;7242;50.858;6.586;2022-09-28T21:29:33;11.30;99.90
14317;DHT22;7242;50.858;6.586;2022-09-28T21:41:39;11.20;99.90
14317;DHT22;7242;50.858;6.586;2022-09-28T21:53:56;11.20;99.90
14317;DHT22;7242;50.858;6.586;2022-09-28T21:59:58;11.10;99.90
14317;DHT22;7242;50.858;6.586;2022-09-28T22:09:02;11.00;99.90
14317;DHT22;7242;50.858;6.586;2022-09-28T22:15:05;10.80;99.90
14317;DHT22;7242;50.858;6.586;2022-09-28T22:21:10;10.60;99.90
14317;DHT22;7242;50.858;6.586;2022-09-28T22:24:12;10.60;99.90
14317;DHT22;7242;50.858;6.586;2022-09-28T22:27:13;10.50;99.90
14317;DHT22;7242;50.858;6.586;2022-09-28T22:51:26;10.40;99.90
14317;DHT22;7242;50.858;6.586;2022-09-28T22:57:28;10.30;99.90
14317;DHT22;7242;50.858;6.586;2022-09-28T23:06:32;10.10;99.90
14317;DHT22;7242;50.858;6.586;2022-09-28T23:22:45;9.90;99.90
14317;DHT22;7242;50.858;6.586;2022-09-28T23:37:51;9.50;99.90
14317;DHT22;7242;50.858;6.586;2022-09-28T23:40:52;9.40;99.90
